Terminal Aerodrome Forecast
Issued by NWS

Home | Current Version | Previous Version | Graphics & Text | Print | Product List | Glossary On
Versions: 1 2 3 4 5 6 7 8 9 10 11 12 13 14 15
000
FTUS43 KOAX 131500 AAA
TAFCDR
TAF AMD
KCDR 131512Z 1315/1412 02020G32KT 4SM -SN BR OVC014
      TEMPO 1315/1318 2SM -SN BR OVC009
     FM131800 01020G33KT P6SM OVC015
     FM140000 35014KT P6SM BKN040=

USA.gov is the U.S. government's official web portal to all federal, state and local government web resources and services.